sensor_id;sensor_type;location;lat;lon;timestamp;temperature;humidity
75466;HTU21D;64049;46.290;44.240;2023-12-20T00:01:04;2.07;89.30
75466;HTU21D;64049;46.290;44.240;2023-12-20T00:03:30;2.09;89.30
75466;HTU21D;64049;46.290;44.240;2023-12-20T00:05:56;2.10;89.29
75466;HTU21D;64049;46.290;44.240;2023-12-20T00:08:23;2.20;89.40
75466;HTU21D;64049;46.290;44.240;2023-12-20T00:10:49;2.27;89.37
75466;HTU21D;64049;46.290;44.240;2023-12-20T00:13:15;2.29;89.33
75466;HTU21D;64049;46.290;44.240;2023-12-20T00:15:41;2.31;89.28
75466;HTU21D;64049;46.290;44.240;2023-12-20T00:18:07;2.32;89.25
75466;HTU21D;64049;46.290;44.240;2023-12-20T00:20:32;2.30;89.21
75466;HTU21D;64049;46.290;44.240;2023-12-20T00:37:31;2.15;88.96
75466;HTU21D;64049;46.290;44.240;2023-12-20T00:39:57;2.07;88.87
75466;HTU21D;64049;46.290;44.240;2023-12-20T00:42:23;1.97;88.89
75466;HTU21D;64049;46.290;44.240;2023-12-20T00:44:49;1.99;89.02
75466;HTU21D;64049;46.290;44.240;2023-12-20T00:47:16;2.01;88.98
75466;HTU21D;64049;46.290;44.240;2023-12-20T00:49:42;1.94;88.85
75466;HTU21D;64049;46.290;44.240;2023-12-20T00:52:08;1.79;88.63
75466;HTU21D;64049;46.290;44.240;2023-12-20T00:54:34;1.64;88.70
75466;HTU21D;64049;46.290;44.240;2023-12-20T00:57:00;1.58;88.73
75466;HTU21D;64049;46.290;44.240;2023-12-20T01:38:49;0.83;88.90
75466;HTU21D;64049;46.290;44.240;2023-12-20T01:41:15;0.81;88.88
75466;HTU21D;64049;46.290;44.240;2023-12-20T01:43:41;0.80;88.92
75466;HTU21D;64049;46.290;44.240;2023-12-20T01:46:07;0.81;88.97
75466;HTU21D;64049;46.290;44.240;2023-12-20T01:48:33;0.80;88.97
75466;HTU21D;64049;46.290;44.240;2023-12-20T01:50:59;0.75;88.90
75466;HTU21D;64049;46.290;44.240;2023-12-20T01:53:27;0.76;89.02
75466;HTU21D;64049;46.290;44.240;2023-12-20T01:55:55;0.80;89.01
75466;HTU21D;64049;46.290;44.240;2023-12-20T01:58:22;0.81;89.04
75466;HTU21D;64049;46.290;44.240;2023-12-20T02:00:49;0.88;89.13
75466;HTU21D;64049;46.290;44.240;2023-12-20T02:03:15;0.97;89.29
75466;HTU21D;64049;46.290;44.240;2023-12-20T02:05:42;1.13;89.35
75466;HTU21D;64049;46.290;44.240;2023-12-20T02:08:09;1.33;89.41
75466;HTU21D;64049;46.290;44.240;2023-12-20T02:10:35;1.49;89.35
75466;HTU21D;64049;46.290;44.240;2023-12-20T02:13:01;1.57;89.30
75466;HTU21D;64049;46.290;44.240;2023-12-20T02:15:27;1.62;89.21
75466;HTU21D;64049;46.290;44.240;2023-12-20T02:17:53;1.65;89.19
75466;HTU21D;64049;46.290;44.240;2023-12-20T02:20:20;1.69;89.15
75466;HTU21D;64049;46.290;44.240;2023-12-20T02:22:46;1.78;89.14
75466;HTU21D;64049;46.290;44.240;2023-12-20T02:25:12;1.85;89.10
75466;HTU21D;64049;46.290;44.240;2023-12-20T02:27:38;1.94;89.05
75466;HTU21D;64049;46.290;44.240;2023-12-20T02:30:05;1.99;89.00
75466;HTU21D;64049;46.290;44.240;2023-12-20T02:32:32;1.99;88.93
75466;HTU21D;64049;46.290;44.240;2023-12-20T02:34:58;2.01;88.84
75466;HTU21D;64049;46.290;44.240;2023-12-20T02:37:24;1.97;88.76
75466;HTU21D;64049;46.290;44.240;2023-12-20T02:39:50;1.92;88.72
75466;HTU21D;64049;46.290;44.240;2023-12-20T02:42:16;1.84;88.67
75466;HTU21D;64049;46.290;44.240;2023-12-20T02:44:42;1.77;88.64
75466;HTU21D;64049;46.290;44.240;2023-12-20T02:47:08;1.72;88.67
75466;HTU21D;64049;46.290;44.240;2023-12-20T02:49:34;1.68;88.67
75466;HTU21D;64049;46.290;44.240;2023-12-20T02:51:59;1.64;88.67
75466;HTU21D;64049;46.290;44.240;2023-12-20T02:54:25;1.60;88.66
75466;HTU21D;64049;46.290;44.240;2023-12-20T02:56:52;1.55;88.65
75466;HTU21D;64049;46.290;44.240;2023-12-20T02:59:18;1.53;88.73
75466;HTU21D;64049;46.290;44.240;2023-12-20T03:01:45;1.53;88.79
75466;HTU21D;64049;46.290;44.240;2023-12-20T03:04:14;1.57;88.88
75466;HTU21D;64049;46.290;44.240;2023-12-20T03:06:40;1.67;88.96
75466;HTU21D;64049;46.290;44.240;2023-12-20T03:09:05;1.80;88.95
75466;HTU21D;64049;46.290;44.240;2023-12-20T03:11:31;1.85;88.89
75466;HTU21D;64049;46.290;44.240;2023-12-20T03:13:57;1.94;88.89
75466;HTU21D;64049;46.290;44.240;2023-12-20T03:16:23;2.01;88.90
75466;HTU21D;64049;46.290;44.240;2023-12-20T03:18:49;2.14;88.91
75466;HTU21D;64049;46.290;44.240;2023-12-20T03:21:16;2.27;88.84
75466;HTU21D;64049;46.290;44.240;2023-12-20T03:23:42;2.32;88.73
75466;HTU21D;64049;46.290;44.240;2023-12-20T03:26:08;2.39;88.73
75466;HTU21D;64049;46.290;44.240;2023-12-20T03:28:34;2.45;88.64
75466;HTU21D;64049;46.290;44.240;2023-12-20T03:31:01;2.46;88.60
75466;HTU21D;64049;46.290;44.240;2023-12-20T03:33:28;2.55;88.57
75466;HTU21D;64049;46.290;44.240;2023-12-20T03:35:54;2.59;88.48
75466;HTU21D;64049;46.290;44.240;2023-12-20T03:38:21;2.55;88.36
75466;HTU21D;64049;46.290;44.240;2023-12-20T03:40:47;2.50;88.38
75466;HTU21D;64049;46.290;44.240;2023-12-20T03:43:13;2.51;88.42
75466;HTU21D;64049;46.290;44.240;2023-12-20T03:45:39;2.59;88.44
75466;HTU21D;64049;46.290;44.240;2023-12-20T03:48:05;2.66;88.40
75466;HTU21D;64049;46.290;44.240;2023-12-20T03:50:31;2.75;88.38
75466;HTU21D;64049;46.290;44.240;2023-12-20T03:52:57;2.84;88.38
75466;HTU21D;64049;46.290;44.240;2023-12-20T03:55:23;2.96;88.26
75466;HTU21D;64049;46.290;44.240;2023-12-20T03:57:49;3.04;88.21
75466;HTU21D;64049;46.290;44.240;2023-12-20T04:00:15;3.10;88.12
75466;HTU21D;64049;46.290;44.240;2023-12-20T04:02:41;3.16;88.07
75466;HTU21D;64049;46.290;44.240;2023-12-20T04:05:09;3.21;87.97
75466;HTU21D;64049;46.290;44.240;2023-12-20T04:07:35;3.23;87.88
75466;HTU21D;64049;46.290;44.240;2023-12-20T04:10:02;3.23;87.81
75466;HTU21D;64049;46.290;44.240;2023-12-20T04:12:29;3.20;87.76
75466;HTU21D;64049;46.290;44.240;2023-12-20T04:14:56;3.24;87.76
75466;HTU21D;64049;46.290;44.240;2023-12-20T04:17:22;3.26;87.67
75466;HTU21D;64049;46.290;44.240;2023-12-20T04:19:49;3.24;87.61
75466;HTU21D;64049;46.290;44.240;2023-12-20T04:22:16;3.24;87.59
75466;HTU21D;64049;46.290;44.240;2023-12-20T04:24:42;3.24;87.57
75466;HTU21D;64049;46.290;44.240;2023-12-20T04:27:08;3.31;87.55
75466;HTU21D;64049;46.290;44.240;2023-12-20T04:29:35;3.35;87.51
75466;HTU21D;64049;46.290;44.240;2023-12-20T04:32:01;3.40;87.48
75466;HTU21D;64049;46.290;44.240;2023-12-20T04:34:27;3.43;87.41
75466;HTU21D;64049;46.290;44.240;2023-12-20T04:36:53;3.44;87.38
75466;HTU21D;64049;46.290;44.240;2023-12-20T04:39:19;3.47;87.32
75466;HTU21D;64049;46.290;44.240;2023-12-20T04:41:45;3.47;87.27
75466;HTU21D;64049;46.290;44.240;2023-12-20T04:44:13;3.47;87.22
75466;HTU21D;64049;46.290;44.240;2023-12-20T04:46:39;3.46;87.20
75466;HTU21D;64049;46.290;44.240;2023-12-20T04:49:05;3.47;87.16
75466;HTU21D;64049;46.290;44.240;2023-12-20T04:51:35;3.48;87.15
75466;HTU21D;64049;46.290;44.240;2023-12-20T04:54:01;3.54;87.15
75466;HTU21D;64049;46.290;44.240;2023-12-20T04:56:28;3.57;87.11
75466;HTU21D;64049;46.290;44.240;2023-12-20T04:58:54;3.63;87.06
75466;HTU21D;64049;46.290;44.240;2023-12-20T05:01:20;3.67;87.05
75466;HTU21D;64049;46.290;44.240;2023-12-20T05:03:47;3.71;86.99
75466;HTU21D;64049;46.290;44.240;2023-12-20T05:06:13;3.74;86.96
75466;HTU21D;64049;46.290;44.240;2023-12-20T05:08:39;3.78;86.93
75466;HTU21D;64049;46.290;44.240;2023-12-20T05:11:05;3.83;86.90
75466;HTU21D;64049;46.290;44.240;2023-12-20T05:13:31;3.88;86.88
75466;HTU21D;64049;46.290;44.240;2023-12-20T05:15:56;3.99;86.85
75466;HTU21D;64049;46.290;44.240;2023-12-20T05:18:22;4.06;86.80
75466;HTU21D;64049;46.290;44.240;2023-12-20T05:20:50;4.14;86.74
75466;HTU21D;64049;46.290;44.240;2023-12-20T05:23:17;4.19;86.67
75466;HTU21D;64049;46.290;44.240;2023-12-20T05:25:43;4.27;86.65
75466;HTU21D;64049;46.290;44.240;2023-12-20T05:28:09;4.36;86.59
75466;HTU21D;64049;46.290;44.240;2023-12-20T05:30:35;4.48;86.53
75466;HTU21D;64049;46.290;44.240;2023-12-20T05:33:01;4.59;86.45
75466;HTU21D;64049;46.290;44.240;2023-12-20T05:35:26;4.72;86.37
75466;HTU21D;64049;46.290;44.240;2023-12-20T05:37:53;4.86;86.26
75466;HTU21D;64049;46.290;44.240;2023-12-20T05:40:18;4.97;86.14
75466;HTU21D;64049;46.290;44.240;2023-12-20T05:42:44;5.09;86.06
75466;HTU21D;64049;46.290;44.240;2023-12-20T05:45:10;5.23;85.96
75466;HTU21D;64049;46.290;44.240;2023-12-20T05:47:36;5.36;85.85
75466;HTU21D;64049;46.290;44.240;2023-12-20T05:50:03;5.49;85.75
75466;HTU21D;64049;46.290;44.240;2023-12-20T05:52:29;5.61;85.63
75466;HTU21D;64049;46.290;44.240;2023-12-20T05:54:55;5.71;85.52
75466;HTU21D;64049;46.290;44.240;2023-12-20T05:57:23;5.83;85.42
75466;HTU21D;64049;46.290;44.240;2023-12-20T05:59:49;5.94;85.31
75466;HTU21D;64049;46.290;44.240;2023-12-20T06:02:15;6.04;85.21
75466;HTU21D;64049;46.290;44.240;2023-12-20T06:04:45;6.08;85.16
75466;HTU21D;64049;46.290;44.240;2023-12-20T06:07:12;6.10;85.17
75466;HTU21D;64049;46.290;44.240;2023-12-20T06:09:38;6.14;85.18
75466;HTU21D;64049;46.290;44.240;2023-12-20T06:12:04;6.21;85.13
75466;HTU21D;64049;46.290;44.240;2023-12-20T06:14:30;6.28;85.07
75466;HTU21D;64049;46.290;44.240;2023-12-20T06:16:57;6.40;85.00
75466;HTU21D;64049;46.290;44.240;2023-12-20T06:19:23;6.52;84.86
75466;HTU21D;64049;46.290;44.240;2023-12-20T06:21:49;6.58;84.70
75466;HTU21D;64049;46.290;44.240;2023-12-20T06:24:15;6.68;84.50
75466;HTU21D;64049;46.290;44.240;2023-12-20T06:26:41;6.74;84.30
75466;HTU21D;64049;46.290;44.240;2023-12-20T06:29:07;6.78;84.13
75466;HTU21D;64049;46.290;44.240;2023-12-20T06:31:33;6.80;83.96
75466;HTU21D;64049;46.290;44.240;2023-12-20T06:33:59;6.82;83.84
75466;HTU21D;64049;46.290;44.240;2023-12-20T06:36:26;6.82;83.75
75466;HTU21D;64049;46.290;44.240;2023-12-20T06:38:52;6.85;83.71
75466;HTU21D;64049;46.290;44.240;2023-12-20T06:41:18;6.91;83.71
75466;HTU21D;64049;46.290;44.240;2023-12-20T06:43:44;7.01;83.67
75466;HTU21D;64049;46.290;44.240;2023-12-20T06:46:10;7.15;83.62
75466;HTU21D;64049;46.290;44.240;2023-12-20T06:48:39;7.39;83.47
75466;HTU21D;64049;46.290;44.240;2023-12-20T06:51:05;7.62;83.11
75466;HTU21D;64049;46.290;44.240;2023-12-20T06:53:31;7.91;82.65
75466;HTU21D;64049;46.290;44.240;2023-12-20T06:55:57;8.14;82.04
75466;HTU21D;64049;46.290;44.240;2023-12-20T06:58:23;8.31;81.69
75466;HTU21D;64049;46.290;44.240;2023-12-20T07:00:50;8.45;81.39
75466;HTU21D;64049;46.290;44.240;2023-12-20T07:03:17;8.48;80.88
75466;HTU21D;64049;46.290;44.240;2023-12-20T07:05:43;8.49;80.56
75466;HTU21D;64049;46.290;44.240;2023-12-20T07:08:09;8.42;80.33
75466;HTU21D;64049;46.290;44.240;2023-12-20T07:10:36;8.30;80.39
75466;HTU21D;64049;46.290;44.240;2023-12-20T07:13:02;8.16;80.54
75466;HTU21D;64049;46.290;44.240;2023-12-20T07:15:28;8.04;80.44
75466;HTU21D;64049;46.290;44.240;2023-12-20T07:17:55;7.99;80.49
75466;HTU21D;64049;46.290;44.240;2023-12-20T07:20:21;7.92;80.49
75466;HTU21D;64049;46.290;44.240;2023-12-20T07:22:47;7.88;80.56
75466;HTU21D;64049;46.290;44.240;2023-12-20T07:25:13;7.84;80.49
75466;HTU21D;64049;46.290;44.240;2023-12-20T07:27:39;7.89;80.33
75466;HTU21D;64049;46.290;44.240;2023-12-20T07:30:05;8.02;80.09
75466;HTU21D;64049;46.290;44.240;2023-12-20T07:32:31;8.03;79.72
75466;HTU21D;64049;46.290;44.240;2023-12-20T07:34:57;8.09;79.53
75466;HTU21D;64049;46.290;44.240;2023-12-20T07:37:23;8.23;79.39
75466;HTU21D;64049;46.290;44.240;2023-12-20T07:39:49;8.38;79.10
75466;HTU21D;64049;46.290;44.240;2023-12-20T07:42:15;8.46;78.79
75466;HTU21D;64049;46.290;44.240;2023-12-20T07:44:41;8.51;78.72
75466;HTU21D;64049;46.290;44.240;2023-12-20T07:47:07;8.58;78.24
75466;HTU21D;64049;46.290;44.240;2023-12-20T07:49:33;8.71;77.91
75466;HTU21D;64049;46.290;44.240;2023-12-20T07:51:59;8.77;77.19
75466;HTU21D;64049;46.290;44.240;2023-12-20T07:54:25;8.79;76.63
75466;HTU21D;64049;46.290;44.240;2023-12-20T07:56:51;8.89;76.60
75466;HTU21D;64049;46.290;44.240;2023-12-20T07:59:17;9.00;76.66
75466;HTU21D;64049;46.290;44.240;2023-12-20T08:01:43;9.08;76.47
75466;HTU21D;64049;46.290;44.240;2023-12-20T08:04:10;9.21;76.26
75466;HTU21D;64049;46.290;44.240;2023-12-20T08:06:35;9.26;76.00
75466;HTU21D;64049;46.290;44.240;2023-12-20T08:09:01;9.32;75.93
75466;HTU21D;64049;46.290;44.240;2023-12-20T08:11:28;9.39;76.11
75466;HTU21D;64049;46.290;44.240;2023-12-20T08:13:55;9.44;75.70
75466;HTU21D;64049;46.290;44.240;2023-12-20T08:16:21;9.46;75.37
75466;HTU21D;64049;46.290;44.240;2023-12-20T08:18:47;9.56;75.59
75466;HTU21D;64049;46.290;44.240;2023-12-20T08:21:13;9.67;75.34
75466;HTU21D;64049;46.290;44.240;2023-12-20T08:23:39;9.78;75.41
75466;HTU21D;64049;46.290;44.240;2023-12-20T08:26:06;9.93;75.64
75466;HTU21D;64049;46.290;44.240;2023-12-20T08:28:32;10.03;75.86
75466;HTU21D;64049;46.290;44.240;2023-12-20T08:30:59;10.09;75.95
75466;HTU21D;64049;46.290;44.240;2023-12-20T08:33:25;10.20;76.08
75466;HTU21D;64049;46.290;44.240;2023-12-20T08:35:51;10.29;76.18
75466;HTU21D;64049;46.290;44.240;2023-12-20T08:38:17;10.36;76.31
75466;HTU21D;64049;46.290;44.240;2023-12-20T08:40:43;10.39;76.36
75466;HTU21D;64049;46.290;44.240;2023-12-20T08:43:10;10.46;76.41
75466;HTU21D;64049;46.290;44.240;2023-12-20T08:45:36;10.54;76.37
75466;HTU21D;64049;46.290;44.240;2023-12-20T08:48:02;10.60;76.26
75466;HTU21D;64049;46.290;44.240;2023-12-20T08:50:29;10.65;76.21
75466;HTU21D;64049;46.290;44.240;2023-12-20T08:52:55;10.62;75.87
75466;HTU21D;64049;46.290;44.240;2023-12-20T08:55:21;10.65;75.67
75466;HTU21D;64049;46.290;44.240;2023-12-20T08:57:47;10.63;75.20
75466;HTU21D;64049;46.290;44.240;2023-12-20T09:00:13;10.59;74.64
75466;HTU21D;64049;46.290;44.240;2023-12-20T09:02:39;10.56;74.44
75466;HTU21D;64049;46.290;44.240;2023-12-20T09:05:05;10.58;74.15
75466;HTU21D;64049;46.290;44.240;2023-12-20T09:07:32;10.64;74.22
75466;HTU21D;64049;46.290;44.240;2023-12-20T09:09:58;10.70;74.22
75466;HTU21D;64049;46.290;44.240;2023-12-20T09:12:25;10.69;73.48
75466;HTU21D;64049;46.290;44.240;2023-12-20T09:14:51;10.59;71.87
75466;HTU21D;64049;46.290;44.240;2023-12-20T09:17:18;10.54;71.17
75466;HTU21D;64049;46.290;44.240;2023-12-20T09:19:45;10.49;70.00
75466;HTU21D;64049;46.290;44.240;2023-12-20T09:22:11;10.46;69.61
75466;HTU21D;64049;46.290;44.240;2023-12-20T09:24:38;10.53;69.27
75466;HTU21D;64049;46.290;44.240;2023-12-20T09:27:06;10.60;69.17
75466;HTU21D;64049;46.290;44.240;2023-12-20T09:29:33;10.63;69.36
75466;HTU21D;64049;46.290;44.240;2023-12-20T09:31:59;10.66;69.41
75466;HTU21D;64049;46.290;44.240;2023-12-20T09:34:25;10.72;69.56
75466;HTU21D;64049;46.290;44.240;2023-12-20T09:36:52;10.75;69.22
75466;HTU21D;64049;46.290;44.240;2023-12-20T09:39:19;10.73;68.22
75466;HTU21D;64049;46.290;44.240;2023-12-20T09:41:51;10.74;67.54
75466;HTU21D;64049;46.290;44.240;2023-12-20T09:44:20;10.75;67.37
75466;HTU21D;64049;46.290;44.240;2023-12-20T09:46:49;10.72;67.17
75466;HTU21D;64049;46.290;44.240;2023-12-20T09:49:19;10.74;67.43
75466;HTU21D;64049;46.290;44.240;2023-12-20T09:51:50;10.80;67.16
75466;HTU21D;64049;46.290;44.240;2023-12-20T09:54:17;10.80;66.75
75466;HTU21D;64049;46.290;44.240;2023-12-20T09:56:46;10.80;66.14
75466;HTU21D;64049;46.290;44.240;2023-12-20T09:59:13;10.78;66.05
75466;HTU21D;64049;46.290;44.240;2023-12-20T10:01:40;10.78;65.85
75466;HTU21D;64049;46.290;44.240;2023-12-20T10:04:07;10.81;65.85
75466;HTU21D;64049;46.290;44.240;2023-12-20T10:06:42;10.88;65.99
75466;HTU21D;64049;46.290;44.240;2023-12-20T10:09:09;11.03;65.73
75466;HTU21D;64049;46.290;44.240;2023-12-20T10:11:39;11.20;65.66
75466;HTU21D;64049;46.290;44.240;2023-12-20T10:14:06;11.40;65.34
75466;HTU21D;64049;46.290;44.240;2023-12-20T10:16:33;11.53;64.89
75466;HTU21D;64049;46.290;44.240;2023-12-20T10:19:00;11.68;64.82
75466;HTU21D;64049;46.290;44.240;2023-12-20T10:21:27;11.74;64.51
75466;HTU21D;64049;46.290;44.240;2023-12-20T10:23:57;11.59;63.93
75466;HTU21D;64049;46.290;44.240;2023-12-20T10:26:25;11.46;64.33
75466;HTU21D;64049;46.290;44.240;2023-12-20T10:28:52;11.46;65.03
75466;HTU21D;64049;46.290;44.240;2023-12-20T10:31:33;11.52;64.59
75466;HTU21D;64049;46.290;44.240;2023-12-20T10:34:00;11.51;65.17
75466;HTU21D;64049;46.290;44.240;2023-12-20T10:36:28;11.54;65.60
75466;HTU21D;64049;46.290;44.240;2023-12-20T10:38:55;11.53;66.12
75466;HTU21D;64049;46.290;44.240;2023-12-20T10:41:32;11.51;66.72
75466;HTU21D;64049;46.290;44.240;2023-12-20T10:43:59;11.48;66.84
75466;HTU21D;64049;46.290;44.240;2023-12-20T10:46:27;11.41;66.67
75466;HTU21D;64049;46.290;44.240;2023-12-20T10:48:55;11.44;67.10
75466;HTU21D;64049;46.290;44.240;2023-12-20T10:51:22;11.47;67.30
75466;HTU21D;64049;46.290;44.240;2023-12-20T10:53:49;11.47;67.15
75466;HTU21D;64049;46.290;44.240;2023-12-20T10:56:17;11.46;67.47
75466;HTU21D;64049;46.290;44.240;2023-12-20T10:58:45;11.46;67.75
75466;HTU21D;64049;46.290;44.240;2023-12-20T11:01:15;11.42;67.87
75466;HTU21D;64049;46.290;44.240;2023-12-20T11:03:52;11.40;67.91
75466;HTU21D;64049;46.290;44.240;2023-12-20T11:06:43;11.31;67.75
75466;HTU21D;64049;46.290;44.240;2023-12-20T11:09:38;11.26;67.96
75466;HTU21D;64049;46.290;44.240;2023-12-20T11:12:32;11.28;68.18
75466;HTU21D;64049;46.290;44.240;2023-12-20T11:15:01;11.26;68.17
75466;HTU21D;64049;46.290;44.240;2023-12-20T11:17:31;11.26;68.36
75466;HTU21D;64049;46.290;44.240;2023-12-20T11:22:30;11.12;68.43
75466;HTU21D;64049;46.290;44.240;2023-12-20T11:25:08;11.12;68.12
75466;HTU21D;64049;46.290;44.240;2023-12-20T11:27:35;11.10;68.23
75466;HTU21D;64049;46.290;44.240;2023-12-20T11:30:03;11.09;68.33
75466;HTU21D;64049;46.290;44.240;2023-12-20T11:32:35;11.09;68.31
75466;HTU21D;64049;46.290;44.240;2023-12-20T11:37:38;11.05;68.40
75466;HTU21D;64049;46.290;44.240;2023-12-20T11:40:11;11.03;68.52
75466;HTU21D;64049;46.290;44.240;2023-12-20T11:42:41;11.01;68.51
75466;HTU21D;64049;46.290;44.240;2023-12-20T11:45:17;10.95;68.62
75466;HTU21D;64049;46.290;44.240;2023-12-20T11:47:49;10.88;68.68
75466;HTU21D;64049;46.290;44.240;2023-12-20T11:50:23;10.83;68.86
75466;HTU21D;64049;46.290;44.240;2023-12-20T11:52:49;10.79;69.10
75466;HTU21D;64049;46.290;44.240;2023-12-20T11:55:15;10.75;69.31
75466;HTU21D;64049;46.290;44.240;2023-12-20T11:57:42;10.70;69.26
75466;HTU21D;64049;46.290;44.240;2023-12-20T12:00:09;10.66;69.49
75466;HTU21D;64049;46.290;44.240;2023-12-20T12:02:38;10.59;69.57
75466;HTU21D;64049;46.290;44.240;2023-12-20T12:05:05;10.54;69.71
75466;HTU21D;64049;46.290;44.240;2023-12-20T12:07:31;10.48;69.93
75466;HTU21D;64049;46.290;44.240;2023-12-20T12:09:57;10.44;70.00
75466;HTU21D;64049;46.290;44.240;2023-12-20T12:12:24;10.40;70.00
75466;HTU21D;64049;46.290;44.240;2023-12-20T12:14:54;10.31;70.02
75466;HTU21D;64049;46.290;44.240;2023-12-20T12:17:22;10.23;70.20
75466;HTU21D;64049;46.290;44.240;2023-12-20T12:19:48;10.15;70.28
75466;HTU21D;64049;46.290;44.240;2023-12-20T12:22:15;10.05;70.57
75466;HTU21D;64049;46.290;44.240;2023-12-20T12:24:43;9.97;70.78
75466;HTU21D;64049;46.290;44.240;2023-12-20T12:27:10;9.88;70.91
75466;HTU21D;64049;46.290;44.240;2023-12-20T12:29:36;9.85;71.02
75466;HTU21D;64049;46.290;44.240;2023-12-20T12:32:11;9.94;70.58
75466;HTU21D;64049;46.290;44.240;2023-12-20T12:34:37;9.91;70.35
75466;HTU21D;64049;46.290;44.240;2023-12-20T12:37:04;9.79;70.34
75466;HTU21D;64049;46.290;44.240;2023-12-20T12:39:30;9.66;70.50
75466;HTU21D;64049;46.290;44.240;2023-12-20T12:41:56;9.50;70.71
75466;HTU21D;64049;46.290;44.240;2023-12-20T12:44:23;9.19;71.20
75466;HTU21D;64049;46.290;44.240;2023-12-20T12:46:52;8.91;71.76
75466;HTU21D;64049;46.290;44.240;2023-12-20T12:49:20;8.68;72.25
75466;HTU21D;64049;46.290;44.240;2023-12-20T12:51:47;8.48;72.57
75466;HTU21D;64049;46.290;44.240;2023-12-20T12:54:13;8.31;72.81
75466;HTU21D;64049;46.290;44.240;2023-12-20T12:56:41;8.15;72.90
75466;HTU21D;64049;46.290;44.240;2023-12-20T12:59:08;7.98;73.03
75466;HTU21D;64049;46.290;44.240;2023-12-20T13:01:34;7.76;73.32
75466;HTU21D;64049;46.290;44.240;2023-12-20T13:04:00;7.61;73.53
75466;HTU21D;64049;46.290;44.240;2023-12-20T13:06:28;7.46;73.75
75466;HTU21D;64049;46.290;44.240;2023-12-20T13:08:54;7.32;73.93
75466;HTU21D;64049;46.290;44.240;2023-12-20T13:11:21;7.18;74.07
75466;HTU21D;64049;46.290;44.240;2023-12-20T13:13:47;7.07;74.22
75466;HTU21D;64049;46.290;44.240;2023-12-20T13:16:13;6.93;74.38
75466;HTU21D;64049;46.290;44.240;2023-12-20T13:18:39;6.80;74.51
75466;HTU21D;64049;46.290;44.240;2023-12-20T13:21:08;6.70;74.67
75466;HTU21D;64049;46.290;44.240;2023-12-20T13:23:34;6.59;74.73
75466;HTU21D;64049;46.290;44.240;2023-12-20T13:26:01;6.48;74.91
75466;HTU21D;64049;46.290;44.240;2023-12-20T13:28:27;6.36;75.03
75466;HTU21D;64049;46.290;44.240;2023-12-20T13:30:53;6.27;75.18
75466;HTU21D;64049;46.290;44.240;2023-12-20T13:33:19;6.19;75.25
75466;HTU21D;64049;46.290;44.240;2023-12-20T13:35:45;6.10;75.31
75466;HTU21D;64049;46.290;44.240;2023-12-20T13:38:12;6.01;75.41
75466;HTU21D;64049;46.290;44.240;2023-12-20T13:40:38;5.94;75.50
75466;HTU21D;64049;46.290;44.240;2023-12-20T13:43:04;5.87;75.60
75466;HTU21D;64049;46.290;44.240;2023-12-20T13:45:31;5.83;75.70
75466;HTU21D;64049;46.290;44.240;2023-12-20T13:47:58;5.79;75.73
75466;HTU21D;64049;46.290;44.240;2023-12-20T13:50:24;5.75;75.73
75466;HTU21D;64049;46.290;44.240;2023-12-20T13:52:51;5.66;75.79
75466;HTU21D;64049;46.290;44.240;2023-12-20T13:55:17;5.56;75.93
75466;HTU21D;64049;46.290;44.240;2023-12-20T13:57:46;5.48;76.05
75466;HTU21D;64049;46.290;44.240;2023-12-20T14:00:14;5.41;76.18
75466;HTU21D;64049;46.290;44.240;2023-12-20T14:02:41;5.39;76.20
75466;HTU21D;64049;46.290;44.240;2023-12-20T14:05:08;5.36;76.24
75466;HTU21D;64049;46.290;44.240;2023-12-20T14:07:36;5.34;76.22
75466;HTU21D;64049;46.290;44.240;2023-12-20T14:10:02;5.30;76.31
75466;HTU21D;64049;46.290;44.240;2023-12-20T14:12:28;5.25;76.31
75466;HTU21D;64049;46.290;44.240;2023-12-20T14:14:54;5.24;76.37
75466;HTU21D;64049;46.290;44.240;2023-12-20T14:17:22;5.17;76.45
75466;HTU21D;64049;46.290;44.240;2023-12-20T14:19:48;5.16;76.51
75466;HTU21D;64049;46.290;44.240;2023-12-20T14:22:14;5.10;76.51
75466;HTU21D;64049;46.290;44.240;2023-12-20T14:24:42;5.10;76.60
75466;HTU21D;64049;46.290;44.240;2023-12-20T14:27:08;5.10;76.59
75466;HTU21D;64049;46.290;44.240;2023-12-20T14:29:35;5.07;76.57
75466;HTU21D;64049;46.290;44.240;2023-12-20T18:37:33;2.32;81.24
75466;HTU21D;64049;46.290;44.240;2023-12-20T18:40:04;2.23;81.38
75466;HTU21D;64049;46.290;44.240;2023-12-20T18:42:31;2.13;81.55
75466;HTU21D;64049;46.290;44.240;2023-12-20T18:44:57;2.05;81.68
75466;HTU21D;64049;46.290;44.240;2023-12-20T18:47:23;2.00;81.81
75466;HTU21D;64049;46.290;44.240;2023-12-20T23:04:59;3.36;82.25
75466;HTU21D;64049;46.290;44.240;2023-12-20T23:07:51;3.36;82.28
75466;HTU21D;64049;46.290;44.240;2023-12-20T23:10:32;3.36;82.29
75466;HTU21D;64049;46.290;44.240;2023-12-20T23:31:22;3.32;82.42
75466;HTU21D;64049;46.290;44.240;2023-12-20T23:33:49;3.33;82.39
75466;HTU21D;64049;46.290;44.240;2023-12-20T23:36:14;3.34;82.42
75466;HTU21D;64049;46.290;44.240;2023-12-20T23:38:40;3.35;82.39
75466;HTU21D;64049;46.290;44.240;2023-12-20T23:41:06;3.36;82.39
75466;HTU21D;64049;46.290;44.240;2023-12-20T23:43:32;3.38;82.37
75466;HTU21D;64049;46.290;44.240;2023-12-20T23:45:58;3.39;82.37
75466;HTU21D;64049;46.290;44.240;2023-12-20T23:48:24;3.40;82.41
75466;HTU21D;64049;46.290;44.240;2023-12-20T23:50:50;3.41;82.45
75466;HTU21D;64049;46.290;44.240;2023-12-20T23:53:16;3.40;82.46
75466;HTU21D;64049;46.290;44.240;2023-12-20T23:55:42;3.40;82.49
75466;HTU21D;64049;46.290;44.240;2023-12-20T23:58:08;3.40;82.52
